createdAt,value
2017-10-27T00:00:09.344Z,1009.52
2017-10-27T00:01:09.281Z,1009.55
2017-10-27T00:02:09.345Z,1009.55
2017-10-27T00:03:09.300Z,1009.53
2017-10-27T00:04:09.346Z,1009.57
2017-10-27T00:05:09.286Z,1009.56
2017-10-27T00:06:09.283Z,1009.53
2017-10-27T00:07:09.405Z,1009.48
2017-10-27T00:08:09.209Z,1009.45
2017-10-27T00:09:09.253Z,1009.41
2017-10-27T00:10:09.202Z,1009.43
2017-10-27T00:11:09.252Z,1009.46
2017-10-27T00:12:09.253Z,1009.54
2017-10-27T00:13:09.273Z,1009.53
2017-10-27T00:14:09.228Z,1009.54
2017-10-27T00:15:09.272Z,1009.56
2017-10-27T00:16:09.203Z,1009.54
2017-10-27T00:17:09.209Z,1009.50
2017-10-27T00:18:09.311Z,1009.50
2017-10-27T00:19:09.314Z,1009.50
2017-10-27T00:20:09.284Z,1009.53
2017-10-27T00:21:09.334Z,1009.57
2017-10-27T00:22:09.339Z,1009.53
2017-10-27T00:23:09.318Z,1009.59
2017-10-27T00:24:09.342Z,1009.55
2017-10-27T00:25:09.250Z,1009.52
2017-10-27T00:26:09.249Z,1009.54
2017-10-27T00:27:09.343Z,1009.62
2017-10-27T00:28:09.249Z,1009.67
2017-10-27T00:29:09.308Z,1009.65
2017-10-27T00:30:09.229Z,1009.59
2017-10-27T00:31:09.314Z,1009.51
2017-10-27T00:32:09.249Z,1009.56
2017-10-27T00:33:09.350Z,1009.53
2017-10-27T00:34:09.345Z,1009.46
2017-10-27T00:35:09.267Z,1009.40
2017-10-27T00:36:09.328Z,1009.41
2017-10-27T00:37:09.257Z,1009.43
2017-10-27T00:38:09.365Z,1009.47
2017-10-27T00:39:09.368Z,1009.48
2017-10-27T00:40:09.294Z,1009.45
2017-10-27T00:41:09.369Z,1009.43
2017-10-27T00:42:09.368Z,1009.41
2017-10-27T00:43:09.302Z,1009.41
2017-10-27T00:44:09.370Z,1009.41
2017-10-27T00:45:09.303Z,1009.37
2017-10-27T00:46:09.370Z,1009.36
2017-10-27T00:47:09.299Z,1009.36
2017-10-27T00:48:09.371Z,1009.41
2017-10-27T00:49:09.305Z,1009.41
2017-10-27T00:50:09.374Z,1009.36
2017-10-27T00:51:09.314Z,1009.41
2017-10-27T00:52:09.311Z,1009.39
2017-10-27T00:53:09.376Z,1009.39
2017-10-27T00:54:09.376Z,1009.43
2017-10-27T00:55:09.309Z,1009.40
2017-10-27T00:56:09.377Z,1009.34
2017-10-27T00:57:09.311Z,1009.35
2017-10-27T00:58:09.314Z,1009.34
2017-10-27T00:59:09.363Z,1009.30
2017-10-27T01:00:09.377Z,1009.28
2017-10-27T01:01:09.364Z,1009.30
2017-10-27T01:02:09.370Z,1009.28
2017-10-27T01:03:09.371Z,1009.22
2017-10-27T01:04:09.287Z,1009.23
2017-10-27T01:05:09.283Z,1009.21
2017-10-27T01:06:09.351Z,1009.23
2017-10-27T01:07:09.334Z,1009.20
2017-10-27T01:08:09.315Z,1009.17
2017-10-27T01:09:09.384Z,1009.15
2017-10-27T01:10:09.384Z,1009.13
2017-10-27T01:11:09.314Z,1009.14
2017-10-27T01:12:09.387Z,1009.11
2017-10-27T01:13:09.386Z,1009.16
2017-10-27T01:14:09.388Z,1009.19
2017-10-27T01:15:09.329Z,1009.16
2017-10-27T01:16:09.315Z,1009.21
2017-10-27T01:17:09.271Z,1009.15
2017-10-27T01:18:09.321Z,1009.15
2017-10-27T01:19:09.389Z,1009.17
2017-10-27T01:20:09.395Z,1009.17
2017-10-27T01:21:09.391Z,1009.12
2017-10-27T01:22:09.393Z,1009.16
2017-10-27T01:23:09.326Z,1009.09
2017-10-27T01:24:09.394Z,1009.09
2017-10-27T01:25:09.396Z,1009.12
2017-10-27T01:26:09.393Z,1009.10
2017-10-27T01:27:09.330Z,1009.08
2017-10-27T01:28:09.328Z,1009.09
2017-10-27T01:29:09.397Z,1009.09
2017-10-27T01:30:09.332Z,1009.06
2017-10-27T01:31:09.329Z,1009.06
2017-10-27T01:32:09.400Z,1009.02
2017-10-27T01:33:09.333Z,1009.04
2017-10-27T01:34:09.404Z,1009.07
2017-10-27T01:35:09.332Z,1009.09
2017-10-27T01:36:09.401Z,1009.00
2017-10-27T01:37:09.410Z,1008.92
2017-10-27T01:38:09.368Z,1008.88
2017-10-27T01:39:09.406Z,1008.87
2017-10-27T01:40:09.338Z,1008.88
2017-10-27T01:41:09.404Z,1008.88
2017-10-27T01:42:09.338Z,1008.84
2017-10-27T01:43:09.337Z,1008.80
2017-10-27T01:44:09.406Z,1008.80
2017-10-27T01:45:09.334Z,1008.79
2017-10-27T01:46:09.448Z,1008.72
2017-10-27T01:47:09.411Z,1008.59
2017-10-27T01:48:09.341Z,1008.57
2017-10-27T01:49:09.408Z,1008.54
2017-10-27T01:50:09.356Z,1008.47
2017-10-27T01:51:09.339Z,1008.39
2017-10-27T01:52:09.411Z,1008.40
2017-10-27T01:53:09.346Z,1008.46
2017-10-27T01:54:09.423Z,1008.50
2017-10-27T01:55:09.376Z,1008.61
2017-10-27T01:56:09.345Z,1008.66
2017-10-27T01:57:09.415Z,1008.70
2017-10-27T01:58:09.398Z,1008.67
2017-10-27T01:59:09.312Z,1008.64
2017-10-27T02:00:09.347Z,1008.64
2017-10-27T02:01:09.382Z,1008.59
2017-10-27T02:02:09.385Z,1008.65
2017-10-27T02:03:09.382Z,1008.68
2017-10-27T02:04:09.280Z,1008.67
2017-10-27T02:05:09.370Z,1008.61
2017-10-27T02:06:09.360Z,1008.54
2017-10-27T02:07:09.323Z,1008.53
2017-10-27T02:08:09.319Z,1008.54
2017-10-27T02:09:09.320Z,1008.52
2017-10-27T02:10:09.373Z,1008.48
2017-10-27T02:11:09.365Z,1008.51
2017-10-27T02:12:09.319Z,1008.54
2017-10-27T02:13:09.368Z,1008.56
2017-10-27T02:14:09.277Z,1008.59
2017-10-27T02:15:09.375Z,1008.61
2017-10-27T02:16:09.324Z,1008.63
2017-10-27T02:17:09.275Z,1008.65
2017-10-27T02:18:09.380Z,1008.67
2017-10-27T02:19:09.308Z,1008.62
2017-10-27T02:20:09.389Z,1008.59
2017-10-27T02:21:09.358Z,1008.63
2017-10-27T02:22:09.426Z,1008.69
2017-10-27T02:23:09.355Z,1008.66
2017-10-27T02:24:09.328Z,1008.67
2017-10-27T02:25:09.381Z,1008.70
2017-10-27T02:26:09.380Z,1008.64
2017-10-27T02:27:09.415Z,1008.66
2017-10-27T02:28:09.371Z,1008.60
2017-10-27T02:29:09.300Z,1008.58
2017-10-27T02:30:09.318Z,1008.64
2017-10-27T02:31:09.334Z,1008.66
2017-10-27T02:32:09.341Z,1008.65
2017-10-27T02:33:09.424Z,1008.65
2017-10-27T02:34:09.427Z,1008.65
2017-10-27T02:35:09.421Z,1008.61
2017-10-27T02:36:09.336Z,1008.53
2017-10-27T02:37:09.319Z,1008.47
2017-10-27T02:38:09.439Z,1008.37
2017-10-27T02:39:09.441Z,1008.35
2017-10-27T02:40:09.374Z,1008.34
2017-10-27T02:41:09.440Z,1008.33
2017-10-27T02:42:09.441Z,1008.31
2017-10-27T02:43:09.374Z,1008.32
2017-10-27T02:44:09.371Z,1008.34
2017-10-27T02:45:09.451Z,1008.39
2017-10-27T02:46:09.377Z,1008.37
2017-10-27T02:47:09.460Z,1008.34
2017-10-27T02:48:09.337Z,1008.31
2017-10-27T02:49:09.328Z,1008.30
2017-10-27T02:50:09.381Z,1008.27
2017-10-27T02:51:09.337Z,1008.30
2017-10-27T02:52:09.410Z,1008.29
2017-10-27T02:53:09.411Z,1008.29
2017-10-27T02:54:09.376Z,1008.32
2017-10-27T02:55:09.344Z,1008.34
2017-10-27T02:56:09.320Z,1008.40
2017-10-27T02:57:09.325Z,1008.42
2017-10-27T02:58:09.348Z,1008.44
2017-10-27T02:59:09.397Z,1008.46
2017-10-27T03:00:09.300Z,1008.43
2017-10-27T03:01:09.306Z,1008.39
2017-10-27T03:02:09.351Z,1008.43
2017-10-27T03:03:09.300Z,1008.46
2017-10-27T03:04:09.401Z,1008.49
2017-10-27T03:05:09.307Z,1008.43
2017-10-27T03:06:09.305Z,1008.44
2017-10-27T03:07:09.352Z,1008.45
2017-10-27T03:08:09.392Z,1008.43
2017-10-27T03:09:09.455Z,1008.39
2017-10-27T03:10:09.386Z,1008.36
2017-10-27T03:11:09.479Z,1008.44
2017-10-27T03:12:09.406Z,1008.46
2017-10-27T03:13:09.458Z,1008.48
2017-10-27T03:14:09.407Z,1008.49
2017-10-27T03:15:09.459Z,1008.54
2017-10-27T03:16:09.465Z,1008.58
2017-10-27T03:17:09.397Z,1008.54
2017-10-27T03:18:09.463Z,1008.48
2017-10-27T03:19:09.463Z,1008.44
2017-10-27T03:20:09.400Z,1008.42
2017-10-27T03:21:09.463Z,1008.41
2017-10-27T03:22:09.394Z,1008.39
2017-10-27T03:23:09.413Z,1008.41
2017-10-27T03:24:09.466Z,1008.42
2017-10-27T03:25:09.467Z,1008.47
2017-10-27T03:26:09.487Z,1008.45
2017-10-27T03:27:09.412Z,1008.41
2017-10-27T03:28:09.397Z,1008.44
2017-10-27T03:29:09.336Z,1008.44
2017-10-27T03:30:09.405Z,1008.43
2017-10-27T03:31:09.402Z,1008.40
2017-10-27T03:32:09.401Z,1008.47
2017-10-27T03:33:09.381Z,1008.46
2017-10-27T03:34:09.455Z,1008.43
2017-10-27T03:35:09.438Z,1008.45
2017-10-27T03:36:09.399Z,1008.41
2017-10-27T03:37:09.336Z,1008.36
2017-10-27T03:38:09.383Z,1008.38
2017-10-27T03:39:09.361Z,1008.38
2017-10-27T03:40:09.454Z,1008.46
2017-10-27T03:41:09.358Z,1008.49
2017-10-27T03:42:09.420Z,1008.50
2017-10-27T03:43:09.346Z,1008.50
2017-10-27T03:44:09.338Z,1008.51
2017-10-27T03:45:09.339Z,1008.53
2017-10-27T03:46:09.366Z,1008.54
2017-10-27T03:47:09.430Z,1008.53
2017-10-27T03:48:09.479Z,1008.56
2017-10-27T03:49:09.568Z,1008.49
2017-10-27T03:50:09.485Z,1008.48
2017-10-27T03:51:09.446Z,1008.49
2017-10-27T03:52:09.413Z,1008.49
2017-10-27T03:53:09.483Z,1008.48
2017-10-27T03:54:09.485Z,1008.47
2017-10-27T03:55:09.488Z,1008.47
2017-10-27T03:56:09.417Z,1008.46
2017-10-27T03:57:09.419Z,1008.48
2017-10-27T03:58:09.484Z,1008.51
2017-10-27T03:59:09.505Z,1008.54
2017-10-27T04:00:09.416Z,1008.51
2017-10-27T04:01:09.419Z,1008.48
2017-10-27T04:02:09.491Z,1008.53
2017-10-27T04:03:09.493Z,1008.54
2017-10-27T04:04:09.490Z,1008.52
2017-10-27T04:05:09.424Z,1008.53
2017-10-27T04:06:09.417Z,1008.54
2017-10-27T04:07:09.577Z,1008.57
2017-10-27T04:08:09.497Z,1008.57
2017-10-27T04:09:09.423Z,1008.58
2017-10-27T04:10:09.494Z,1008.54
2017-10-27T04:11:09.494Z,1008.52
2017-10-27T04:12:09.425Z,1008.56
2017-10-27T04:13:09.498Z,1008.54
2017-10-27T04:14:09.385Z,1008.52
2017-10-27T04:15:09.445Z,1008.54
2017-10-27T04:16:09.499Z,1008.57
2017-10-27T04:17:09.498Z,1008.56
2017-10-27T04:18:09.497Z,1008.52
2017-10-27T04:19:09.432Z,1008.50
2017-10-27T04:20:09.499Z,1008.47
2017-10-27T04:21:09.463Z,1008.47
2017-10-27T04:22:09.505Z,1008.51
2017-10-27T04:23:09.434Z,1008.46
2017-10-27T04:24:09.501Z,1008.42
2017-10-27T04:25:09.432Z,1008.44
2017-10-27T04:26:09.508Z,1008.48
2017-10-27T04:27:09.438Z,1008.51
2017-10-27T04:28:09.435Z,1008.46
2017-10-27T04:29:09.715Z,1008.52
2017-10-27T04:30:09.506Z,1008.52
2017-10-27T04:31:09.438Z,1008.50
2017-10-27T04:32:09.574Z,1008.56
2017-10-27T04:33:09.512Z,1008.52
2017-10-27T04:34:09.435Z,1008.57
2017-10-27T04:35:09.507Z,1008.53
2017-10-27T04:36:09.491Z,1008.54
2017-10-27T04:37:09.440Z,1008.57
2017-10-27T04:38:09.525Z,1008.58
2017-10-27T04:39:09.509Z,1008.55
2017-10-27T04:40:09.439Z,1008.59
2017-10-27T04:41:09.453Z,1008.60
2017-10-27T04:42:09.409Z,1008.62
2017-10-27T04:43:09.514Z,1008.59
2017-10-27T04:44:09.515Z,1008.58
2017-10-27T04:45:09.514Z,1008.65
2017-10-27T04:46:09.447Z,1008.62
2017-10-27T04:47:09.469Z,1008.62
2017-10-27T04:48:09.505Z,1008.61
2017-10-27T04:49:09.490Z,1008.62
2017-10-27T04:50:09.479Z,1008.63
2017-10-27T04:51:09.495Z,1008.62
2017-10-27T04:52:09.504Z,1008.65
2017-10-27T04:53:09.429Z,1008.68
2017-10-27T04:54:09.489Z,1008.68
2017-10-27T04:55:09.509Z,1008.67
2017-10-27T04:56:09.521Z,1008.70
2017-10-27T04:57:09.383Z,1008.68
2017-10-27T04:58:09.453Z,1008.68
2017-10-27T04:59:09.524Z,1008.67
2017-10-27T05:00:09.461Z,1008.70
2017-10-27T05:01:09.558Z,1008.72
2017-10-27T05:02:09.525Z,1008.69
2017-10-27T05:03:09.458Z,1008.72
2017-10-27T05:04:09.552Z,1008.71
2017-10-27T05:05:09.458Z,1008.73
2017-10-27T05:06:09.528Z,1008.73
2017-10-27T05:07:09.464Z,1008.76
2017-10-27T05:08:09.529Z,1008.79
2017-10-27T05:09:09.456Z,1008.76
2017-10-27T05:10:09.530Z,1008.75
2017-10-27T05:11:09.533Z,1008.75
2017-10-27T05:12:09.463Z,1008.81
2017-10-27T05:13:09.532Z,1008.77
2017-10-27T05:14:09.465Z,1008.85
2017-10-27T05:15:09.538Z,1008.80
2017-10-27T05:16:09.457Z,1008.81
2017-10-27T05:17:09.500Z,1008.78
2017-10-27T05:18:09.414Z,1008.75
2017-10-27T05:19:09.396Z,1008.82
2017-10-27T05:20:09.502Z,1008.84
2017-10-27T05:21:09.522Z,1008.75
2017-10-27T05:22:09.437Z,1008.78
2017-10-27T05:23:09.439Z,1008.84
2017-10-27T05:24:09.441Z,1008.81
2017-10-27T05:25:09.440Z,1008.79
2017-10-27T05:26:09.445Z,1008.71
2017-10-27T05:27:09.489Z,1008.70
2017-10-27T05:28:09.497Z,1008.69
2017-10-27T05:29:09.502Z,1008.68
2017-10-27T05:30:09.411Z,1008.72
2017-10-27T05:31:09.470Z,1008.70
2017-10-27T05:32:09.399Z,1008.68
2017-10-27T05:33:09.493Z,1008.67
2017-10-27T05:34:09.496Z,1008.61
2017-10-27T05:35:09.419Z,1008.63
2017-10-27T05:36:09.527Z,1008.62
2017-10-27T05:37:09.430Z,1008.70
2017-10-27T05:38:09.416Z,1008.70
2017-10-27T05:39:09.318Z,1008.74
2017-10-27T05:40:09.314Z,1008.68
2017-10-27T05:41:09.318Z,1008.75
2017-10-27T05:42:09.396Z,1008.72
2017-10-27T05:43:09.318Z,1008.77
2017-10-27T05:44:09.316Z,1008.77
2017-10-27T05:45:09.348Z,1008.83
2017-10-27T05:46:09.320Z,1008.88
2017-10-27T05:47:09.316Z,1008.86
2017-10-27T05:48:09.321Z,1008.85
2017-10-27T05:49:09.524Z,1008.91
2017-10-27T05:50:09.523Z,1008.90
2017-10-27T05:51:09.434Z,1008.86
2017-10-27T05:52:09.544Z,1008.88
2017-10-27T05:53:09.418Z,1008.90
2017-10-27T05:54:09.523Z,1008.89
2017-10-27T05:55:09.510Z,1008.97
2017-10-27T05:56:09.545Z,1008.96
2017-10-27T05:57:09.557Z,1008.96
2017-10-27T05:58:09.488Z,1009.00
2017-10-27T05:59:09.527Z,1008.97
2017-10-27T06:00:09.419Z,1008.96
2017-10-27T06:01:09.447Z,1008.95
2017-10-27T06:02:09.542Z,1008.93
2017-10-27T06:03:09.416Z,1009.01
2017-10-27T06:04:09.543Z,1009.06
2017-10-27T06:05:09.539Z,1009.04
2017-10-27T06:06:09.543Z,1009.01
2017-10-27T06:07:09.543Z,1008.99
2017-10-27T06:08:09.457Z,1009.04
2017-10-27T06:09:09.496Z,1009.07
2017-10-27T06:10:09.494Z,1009.00
2017-10-27T06:11:09.494Z,1009.04
2017-10-27T06:12:09.568Z,1009.06
2017-10-27T06:13:09.581Z,1009.06
2017-10-27T06:14:09.500Z,1009.05
2017-10-27T06:15:09.569Z,1009.08
2017-10-27T06:16:09.513Z,1009.11
2017-10-27T06:17:09.572Z,1009.15
2017-10-27T06:18:09.500Z,1009.10
2017-10-27T06:19:09.560Z,1009.09
2017-10-27T06:20:09.586Z,1009.14
2017-10-27T06:21:09.557Z,1009.08
2017-10-27T06:22:09.476Z,1009.16
2017-10-27T06:23:09.560Z,1009.15
2017-10-27T06:24:09.572Z,1009.19
2017-10-27T06:25:09.780Z,1009.21
2017-10-27T06:26:09.474Z,1009.20
2017-10-27T06:27:09.472Z,1009.21
2017-10-27T06:28:09.543Z,1009.24
2017-10-27T06:29:09.449Z,1009.27
2017-10-27T06:30:09.467Z,1009.26
2017-10-27T06:31:09.450Z,1009.27
2017-10-27T06:32:09.558Z,1009.28
2017-10-27T06:33:09.537Z,1009.29
2017-10-27T06:34:09.470Z,1009.30
2017-10-27T06:35:09.450Z,1009.33
2017-10-27T06:36:09.463Z,1009.37
2017-10-27T06:37:09.561Z,1009.32
2017-10-27T06:38:09.523Z,1009.32
2017-10-27T06:39:09.464Z,1009.39
2017-10-27T06:40:09.512Z,1009.41
2017-10-27T06:41:09.511Z,1009.42
2017-10-27T06:42:09.515Z,1009.46
2017-10-27T06:43:09.531Z,1009.41
2017-10-27T06:44:09.482Z,1009.40
2017-10-27T06:45:09.573Z,1009.44
2017-10-27T06:46:09.573Z,1009.48
2017-10-27T06:47:09.516Z,1009.51
2017-10-27T06:48:09.469Z,1009.52
2017-10-27T06:49:09.452Z,1009.58
2017-10-27T06:50:09.553Z,1009.60
2017-10-27T06:51:09.589Z,1009.61
2017-10-27T06:52:09.554Z,1009.63
2017-10-27T06:53:09.583Z,1009.71
2017-10-27T06:54:09.537Z,1009.67
2017-10-27T06:55:09.558Z,1009.71
2017-10-27T06:56:09.517Z,1009.76
2017-10-27T06:57:09.474Z,1009.67
2017-10-27T06:58:09.494Z,1009.82
2017-10-27T06:59:09.545Z,1009.79
2017-10-27T07:00:09.593Z,1009.81
2017-10-27T07:01:09.581Z,1009.85
2017-10-27T07:02:09.519Z,1009.88
2017-10-27T07:03:09.584Z,1009.85
2017-10-27T07:04:09.560Z,1009.91
2017-10-27T07:05:09.528Z,1009.89
2017-10-27T07:06:09.541Z,1010.07
2017-10-27T07:07:09.496Z,1009.96
2017-10-27T07:08:09.583Z,1009.97
2017-10-27T07:09:09.497Z,1010.03
2017-10-27T07:10:09.600Z,1009.97
2017-10-27T07:11:09.607Z,1010.01
2017-10-27T07:12:09.499Z,1010.03
2017-10-27T07:13:09.529Z,1010.01
2017-10-27T07:14:09.504Z,1010.08
2017-10-27T07:15:09.602Z,1010.15
2017-10-27T07:16:09.589Z,1010.11
2017-10-27T07:17:09.529Z,1010.14
2017-10-27T07:18:09.489Z,1010.21
2017-10-27T07:19:09.466Z,1010.22
2017-10-27T07:20:09.466Z,1010.20
2017-10-27T07:21:09.499Z,1010.21
2017-10-27T07:22:09.554Z,1010.23
2017-10-27T07:23:09.499Z,1010.30
2017-10-27T07:24:09.481Z,1010.29
2017-10-27T07:25:09.536Z,1010.30
2017-10-27T07:26:09.539Z,1010.33
2017-10-27T07:27:09.591Z,1010.35
2017-10-27T07:28:09.574Z,1010.42
2017-10-27T07:29:09.611Z,1010.41
2017-10-27T07:30:09.599Z,1010.48
2017-10-27T07:31:09.613Z,1010.50
2017-10-27T07:32:09.559Z,1010.51
2017-10-27T07:33:09.617Z,1010.48
2017-10-27T07:34:09.521Z,1010.53
2017-10-27T07:35:09.584Z,1010.57
2017-10-27T07:36:09.542Z,1010.57
2017-10-27T07:37:09.559Z,1010.56
2017-10-27T07:38:09.511Z,1010.59
2017-10-27T07:39:09.526Z,1010.58
2017-10-27T07:40:09.527Z,1010.66
2017-10-27T07:41:09.577Z,1010.66
2017-10-27T07:42:09.576Z,1010.66
2017-10-27T07:43:09.550Z,1010.66
2017-10-27T07:44:09.579Z,1010.64
2017-10-27T07:45:09.479Z,1010.71
2017-10-27T07:46:09.544Z,1010.76
2017-10-27T07:47:09.531Z,1010.77
2017-10-27T07:48:09.585Z,1010.77
2017-10-27T07:49:09.552Z,1010.76
2017-10-27T07:50:09.625Z,1010.84
2017-10-27T07:51:09.592Z,1010.81
2017-10-27T07:52:09.616Z,1010.83
2017-10-27T07:53:09.558Z,1010.86
2017-10-27T07:54:09.650Z,1010.76
2017-10-27T07:55:09.557Z,1010.83
2017-10-27T07:56:09.558Z,1010.74
2017-10-27T07:57:09.636Z,1010.76
2017-10-27T07:58:09.557Z,1010.79
2017-10-27T07:59:09.576Z,1010.79
2017-10-27T08:00:09.540Z,1010.79
2017-10-27T08:01:09.637Z,1010.77
2017-10-27T08:02:09.535Z,1010.80
2017-10-27T08:03:09.573Z,1010.83
2017-10-27T08:04:09.509Z,1010.92
2017-10-27T08:05:09.573Z,1010.84
2017-10-27T08:06:09.633Z,1010.94
2017-10-27T08:07:09.621Z,1010.87
2017-10-27T08:08:09.619Z,1010.86
2017-10-27T08:09:09.592Z,1010.85
2017-10-27T08:10:09.525Z,1010.85
2017-10-27T08:11:09.578Z,1010.85
2017-10-27T08:12:09.597Z,1010.76
2017-10-27T08:13:09.489Z,1010.81
2017-10-27T08:14:09.503Z,1010.84
2017-10-27T08:15:09.563Z,1010.80
2017-10-27T08:16:09.615Z,1010.72
2017-10-27T08:17:09.597Z,1010.77
2017-10-27T08:18:09.593Z,1010.77
2017-10-27T08:19:09.568Z,1010.79
2017-10-27T08:20:09.497Z,1010.81
2017-10-27T08:21:09.502Z,1010.82
2017-10-27T08:22:09.508Z,1010.88
2017-10-27T08:23:09.551Z,1010.90
2017-10-27T08:24:09.503Z,1010.91
2017-10-27T08:25:09.504Z,1010.92
2017-10-27T08:26:09.461Z,1011.01
2017-10-27T08:27:09.463Z,1011.03
2017-10-27T08:28:09.523Z,1011.03
2017-10-27T08:29:09.632Z,1011.03
2017-10-27T08:30:09.530Z,1011.01
2017-10-27T08:31:09.529Z,1011.05
2017-10-27T08:32:09.613Z,1011.03
2017-10-27T08:33:09.538Z,1011.09
2017-10-27T08:34:09.647Z,1011.07
2017-10-27T08:35:09.535Z,1011.18
2017-10-27T08:36:09.637Z,1011.12
2017-10-27T08:37:09.616Z,1011.14
2017-10-27T08:38:09.603Z,1011.20
2017-10-27T08:39:09.518Z,1011.11
2017-10-27T08:40:09.601Z,1011.20
2017-10-27T08:41:09.517Z,1011.43
2017-10-27T08:42:09.618Z,1011.23
2017-10-27T08:43:09.539Z,1011.19
2017-10-27T08:44:09.564Z,1011.20
2017-10-27T08:45:09.557Z,1011.22
2017-10-27T08:46:09.604Z,1011.15
2017-10-27T08:47:09.607Z,1011.22
2017-10-27T08:48:09.528Z,1011.19
2017-10-27T08:49:09.661Z,1011.15
2017-10-27T08:50:09.661Z,1011.15
2017-10-27T08:51:09.590Z,1011.18
2017-10-27T08:52:09.663Z,1011.28
2017-10-27T08:53:09.589Z,1011.20
2017-10-27T08:54:09.664Z,1011.22
2017-10-27T08:55:09.588Z,1011.25
2017-10-27T08:56:09.664Z,1011.27
2017-10-27T08:57:09.594Z,1011.34
2017-10-27T08:58:09.668Z,1011.32
2017-10-27T08:59:09.665Z,1011.36
2017-10-27T09:00:09.613Z,1011.34
2017-10-27T09:01:09.665Z,1011.40
2017-10-27T09:02:09.590Z,1011.43
2017-10-27T09:03:09.631Z,1011.45
2017-10-27T09:04:09.664Z,1011.42
2017-10-27T09:05:09.578Z,1011.45
2017-10-27T09:06:09.629Z,1011.42
2017-10-27T09:07:09.667Z,1011.40
2017-10-27T09:08:09.654Z,1011.44
2017-10-27T09:09:09.606Z,1011.43
2017-10-27T09:10:09.674Z,1011.43
2017-10-27T09:11:09.600Z,1011.41
2017-10-27T09:12:09.676Z,1011.43
2017-10-27T09:13:09.714Z,1011.44
2017-10-27T09:14:09.606Z,1011.42
2017-10-27T09:15:09.679Z,1011.42
2017-10-27T09:16:09.603Z,1011.39
2017-10-27T09:17:09.603Z,1011.50
2017-10-27T09:18:09.606Z,1011.47
2017-10-27T09:19:09.565Z,1011.57
2017-10-27T09:20:09.546Z,1011.45
2017-10-27T09:21:09.659Z,1011.53
2017-10-27T09:22:09.542Z,1011.62
2017-10-27T09:23:09.552Z,1011.56
2017-10-27T09:24:09.626Z,1011.55
2017-10-27T09:25:09.546Z,1011.57
2017-10-27T09:26:09.541Z,1011.61
2017-10-27T09:27:09.557Z,1011.60
2017-10-27T09:28:09.661Z,1011.63
2017-10-27T09:29:09.622Z,1011.71
2017-10-27T09:30:09.628Z,1011.66
2017-10-27T09:31:09.515Z,1011.72
2017-10-27T09:32:09.562Z,1011.76
2017-10-27T09:33:09.539Z,1011.77
2017-10-27T09:34:09.579Z,1012.06
2017-10-27T09:35:09.588Z,1011.87
2017-10-27T09:36:09.580Z,1011.99
2017-10-27T09:37:09.539Z,1011.84
2017-10-27T09:38:09.538Z,1012.02
2017-10-27T09:39:09.592Z,1011.91
2017-10-27T09:40:09.656Z,1011.96
2017-10-27T09:41:09.655Z,1012.01
2017-10-27T09:42:09.688Z,1012.08
2017-10-27T09:43:09.641Z,1011.99
2017-10-27T09:44:09.591Z,1012.02
2017-10-27T09:45:09.685Z,1012.05
2017-10-27T09:46:09.694Z,1012.08
2017-10-27T09:47:09.678Z,1012.08
2017-10-27T09:48:09.694Z,1012.09
2017-10-27T09:49:09.633Z,1012.15
2017-10-27T09:50:09.624Z,1012.12
2017-10-27T09:51:09.696Z,1012.17
2017-10-27T09:52:09.625Z,1012.18
2017-10-27T09:53:09.701Z,1012.20
2017-10-27T09:54:09.664Z,1012.20
2017-10-27T09:55:09.707Z,1012.21
2017-10-27T09:56:09.625Z,1012.21
2017-10-27T09:57:09.700Z,1012.36
2017-10-27T09:58:09.701Z,1012.26
2017-10-27T09:59:09.581Z,1012.36
2017-10-27T10:00:09.714Z,1012.32
2017-10-27T10:01:09.623Z,1012.49
2017-10-27T10:02:09.603Z,1012.32
2017-10-27T10:03:09.649Z,1012.26
2017-10-27T10:04:09.705Z,1012.47
2017-10-27T10:05:09.691Z,1012.49
2017-10-27T10:06:09.692Z,1012.41
2017-10-27T10:07:09.669Z,1012.36
2017-10-27T10:08:09.589Z,1012.32
2017-10-27T10:09:09.635Z,1012.40
2017-10-27T10:10:09.709Z,1012.34
2017-10-27T10:11:09.708Z,1012.39
2017-10-27T10:12:09.646Z,1012.46
2017-10-27T10:13:09.711Z,1012.45
2017-10-27T10:14:09.720Z,1012.43
2017-10-27T10:15:09.641Z,1012.35
2017-10-27T10:16:09.641Z,1012.48
2017-10-27T10:17:09.714Z,1012.49
2017-10-27T10:18:09.649Z,1012.48
2017-10-27T10:19:09.711Z,1012.48
2017-10-27T10:20:09.712Z,1012.53
2017-10-27T10:21:09.682Z,1012.38
2017-10-27T10:22:09.666Z,1012.44
2017-10-27T10:23:09.707Z,1012.48
2017-10-27T10:24:09.599Z,1012.41
2017-10-27T10:25:09.672Z,1012.46
2017-10-27T10:26:09.689Z,1012.46
2017-10-27T10:27:09.674Z,1012.42
2017-10-27T10:28:09.600Z,1012.47
2017-10-27T10:29:09.652Z,1012.47
2017-10-27T10:30:09.724Z,1012.49
2017-10-27T10:31:09.681Z,1012.46
2017-10-27T10:32:09.721Z,1012.50
2017-10-27T10:33:09.654Z,1012.49
2017-10-27T10:34:09.722Z,1012.55
2017-10-27T10:35:09.649Z,1012.49
2017-10-27T10:36:09.647Z,1012.53
2017-10-27T10:37:09.723Z,1012.61
2017-10-27T10:38:09.653Z,1012.55
2017-10-27T10:39:09.649Z,1012.56
2017-10-27T10:40:09.652Z,1012.60
2017-10-27T10:41:09.628Z,1012.56
2017-10-27T10:42:09.689Z,1012.59
2017-10-27T10:43:09.630Z,1012.59
2017-10-27T10:44:09.725Z,1012.69
2017-10-27T10:45:09.630Z,1012.61
2017-10-27T10:46:09.676Z,1012.65
2017-10-27T10:47:09.680Z,1012.71
2017-10-27T10:48:09.617Z,1012.61
2017-10-27T10:49:09.732Z,1012.60
2017-10-27T10:50:09.731Z,1012.56
2017-10-27T10:51:09.661Z,1012.57
2017-10-27T10:52:09.660Z,1012.61
2017-10-27T10:53:09.681Z,1012.63
2017-10-27T10:54:09.598Z,1012.66
2017-10-27T10:55:09.610Z,1012.74
2017-10-27T10:56:09.721Z,1012.71
2017-10-27T10:57:09.702Z,1012.79
2017-10-27T10:58:09.682Z,1012.79
2017-10-27T10:59:09.698Z,1012.77
2017-10-27T11:00:09.728Z,1012.73
2017-10-27T11:01:09.726Z,1012.80
2017-10-27T11:02:09.635Z,1012.82
2017-10-27T11:03:09.622Z,1012.86
2017-10-27T11:04:09.617Z,1012.84
2017-10-27T11:05:09.742Z,1012.85
2017-10-27T11:06:09.621Z,1012.89
2017-10-27T11:07:09.741Z,1012.95
2017-10-27T11:08:09.733Z,1012.93
2017-10-27T11:09:09.675Z,1012.94
2017-10-27T11:10:09.826Z,1012.99
2017-10-27T11:11:09.748Z,1012.95
2017-10-27T11:12:09.722Z,1012.94
2017-10-27T11:13:09.669Z,1012.98
2017-10-27T11:14:09.754Z,1012.95
2017-10-27T11:15:09.679Z,1013.02
2017-10-27T11:16:09.676Z,1013.01
2017-10-27T11:17:09.755Z,1012.91
2017-10-27T11:18:09.751Z,1013.01
2017-10-27T11:19:09.680Z,1013.02
2017-10-27T11:20:09.680Z,1013.03
2017-10-27T11:21:09.751Z,1012.96
2017-10-27T11:22:09.679Z,1013.02
2017-10-27T11:23:09.755Z,1013.04
2017-10-27T11:24:09.754Z,1013.04
2017-10-27T11:25:09.680Z,1013.04
2017-10-27T11:26:09.760Z,1013.06
2017-10-27T11:27:09.683Z,1013.04
2017-10-27T11:28:09.756Z,1013.06
2017-10-27T11:29:09.718Z,1013.06
2017-10-27T11:30:09.641Z,1013.03
2017-10-27T11:31:09.725Z,1013.07
2017-10-27T11:32:09.683Z,1013.06
2017-10-27T11:33:09.684Z,1013.08
2017-10-27T11:34:09.721Z,1013.08
2017-10-27T11:35:09.663Z,1013.06
2017-10-27T11:36:09.600Z,1013.06
2017-10-27T11:37:09.727Z,1013.04
2017-10-27T11:38:09.706Z,1013.10
2017-10-27T11:39:09.711Z,1013.07
2017-10-27T11:40:09.615Z,1013.06
2017-10-27T11:41:09.705Z,1013.07
2017-10-27T11:42:09.646Z,1013.07
2017-10-27T11:43:09.725Z,1013.11
2017-10-27T11:44:09.710Z,1013.04
2017-10-27T11:45:09.656Z,1013.13
2017-10-27T11:46:09.788Z,1013.16
2017-10-27T11:47:09.729Z,1013.22
2017-10-27T11:48:09.624Z,1013.22
2017-10-27T11:49:09.726Z,1013.14
2017-10-27T11:50:09.696Z,1013.18
2017-10-27T11:51:09.700Z,1013.10
2017-10-27T11:52:09.735Z,1013.21
2017-10-27T11:53:09.702Z,1013.26
2017-10-27T11:54:09.756Z,1013.28
2017-10-27T11:55:09.657Z,1013.13
2017-10-27T11:56:09.699Z,1013.19
2017-10-27T11:57:09.680Z,1013.16
2017-10-27T11:58:09.722Z,1013.16
2017-10-27T11:59:09.772Z,1013.20
2017-10-27T12:00:09.760Z,1013.17
2017-10-27T12:01:09.701Z,1013.06
2017-10-27T12:02:09.732Z,1013.15
2017-10-27T12:03:09.678Z,1013.14
2017-10-27T12:04:09.760Z,1013.13
2017-10-27T12:05:09.722Z,1013.19